sensor_id;sensor_type;location;lat;lon;timestamp;P1;durP1;ratioP1;P2;durP2;ratioP2
40635;SDS011;26642;55.766;37.828;2023-02-15T00:01:12;1.77;;;0.50;;
40635;SDS011;26642;55.766;37.828;2023-02-15T00:03:38;2.63;;;0.65;;
40635;SDS011;26642;55.766;37.828;2023-02-15T00:06:04;1.80;;;0.47;;
40635;SDS011;26642;55.766;37.828;2023-02-15T00:08:31;1.98;;;0.50;;
40635;SDS011;26642;55.766;37.828;2023-02-15T00:11:07;1.35;;;0.70;;
40635;SDS011;26642;55.766;37.828;2023-02-15T00:13:34;1.23;;;0.50;;
40635;SDS011;26642;55.766;37.828;2023-02-15T00:16:08;1.73;;;0.50;;
40635;SDS011;26642;55.766;37.828;2023-02-15T00:18:36;1.37;;;0.50;;
40635;SDS011;26642;55.766;37.828;2023-02-15T00:21:07;1.17;;;0.45;;
40635;SDS011;26642;55.766;37.828;2023-02-15T00:23:34;2.35;;;0.47;;
40635;SDS011;26642;55.766;37.828;2023-02-15T00:26:07;1.63;;;0.43;;
40635;SDS011;26642;55.766;37.828;2023-02-15T00:28:38;2.53;;;0.60;;
40635;SDS011;26642;55.766;37.828;2023-02-15T00:31:08;0.75;;;0.38;;
40635;SDS011;26642;55.766;37.828;2023-02-15T00:33:35;0.85;;;0.40;;
40635;SDS011;26642;55.766;37.828;2023-02-15T00:36:03;1.40;;;0.60;;
40635;SDS011;26642;55.766;37.828;2023-02-15T00:38:30;1.83;;;0.50;;
40635;SDS011;26642;55.766;37.828;2023-02-15T00:40:57;0.63;;;0.40;;
40635;SDS011;26642;55.766;37.828;2023-02-15T00:43:25;1.25;;;0.52;;
40635;SDS011;26642;55.766;37.828;2023-02-15T00:45:52;0.90;;;0.35;;
40635;SDS011;26642;55.766;37.828;2023-02-15T00:48:18;1.25;;;0.50;;
40635;SDS011;26642;55.766;37.828;2023-02-15T00:50:46;1.88;;;0.30;;
40635;SDS011;26642;55.766;37.828;2023-02-15T00:53:15;1.20;;;0.40;;
40635;SDS011;26642;55.766;37.828;2023-02-15T00:55:41;1.02;;;0.52;;
40635;SDS011;26642;55.766;37.828;2023-02-15T00:58:07;1.80;;;0.60;;
40635;SDS011;26642;55.766;37.828;2023-02-15T01:00:34;1.05;;;0.50;;
40635;SDS011;26642;55.766;37.828;2023-02-15T01:03:01;1.90;;;0.60;;
40635;SDS011;26642;55.766;37.828;2023-02-15T01:05:27;1.35;;;0.40;;
40635;SDS011;26642;55.766;37.828;2023-02-15T01:07:55;0.70;;;0.40;;
40635;SDS011;26642;55.766;37.828;2023-02-15T01:10:21;2.47;;;0.40;;
40635;SDS011;26642;55.766;37.828;2023-02-15T01:12:48;1.30;;;0.38;;
40635;SDS011;26642;55.766;37.828;2023-02-15T01:15:15;2.28;;;0.60;;
40635;SDS011;26642;55.766;37.828;2023-02-15T01:17:41;1.52;;;0.30;;
40635;SDS011;26642;55.766;37.828;2023-02-15T01:20:09;1.10;;;0.43;;
40635;SDS011;26642;55.766;37.828;2023-02-15T01:22:35;0.77;;;0.30;;
40635;SDS011;26642;55.766;37.828;2023-02-15T01:25:01;0.80;;;0.30;;
40635;SDS011;26642;55.766;37.828;2023-02-15T01:27:28;1.27;;;0.30;;
40635;SDS011;26642;55.766;37.828;2023-02-15T01:29:56;1.55;;;0.63;;
40635;SDS011;26642;55.766;37.828;2023-02-15T01:32:22;1.83;;;0.40;;
40635;SDS011;26642;55.766;37.828;2023-02-15T01:34:48;2.22;;;0.40;;
40635;SDS011;26642;55.766;37.828;2023-02-15T01:37:14;1.27;;;0.40;;
40635;SDS011;26642;55.766;37.828;2023-02-15T01:39:41;2.03;;;0.50;;
40635;SDS011;26642;55.766;37.828;2023-02-15T01:42:10;0.90;;;0.40;;
40635;SDS011;26642;55.766;37.828;2023-02-15T01:44:45;0.77;;;0.30;;
40635;SDS011;26642;55.766;37.828;2023-02-15T01:47:20;0.95;;;0.55;;
40635;SDS011;26642;55.766;37.828;2023-02-15T01:55:25;1.80;;;0.47;;
40635;SDS011;26642;55.766;37.828;2023-02-15T01:57:54;0.70;;;0.47;;
40635;SDS011;26642;55.766;37.828;2023-02-15T02:00:20;1.65;;;0.30;;
40635;SDS011;26642;55.766;37.828;2023-02-15T02:02:47;0.95;;;0.50;;
40635;SDS011;26642;55.766;37.828;2023-02-15T02:05:23;2.70;;;0.55;;
40635;SDS011;26642;55.766;37.828;2023-02-15T02:07:50;1.35;;;0.50;;
40635;SDS011;26642;55.766;37.828;2023-02-15T02:10:20;1.17;;;0.40;;
40635;SDS011;26642;55.766;37.828;2023-02-15T02:12:49;2.85;;;0.60;;
40635;SDS011;26642;55.766;37.828;2023-02-15T02:15:39;1.23;;;0.40;;
40635;SDS011;26642;55.766;37.828;2023-02-15T02:18:21;1.25;;;0.47;;
40635;SDS011;26642;55.766;37.828;2023-02-15T02:34:54;1.02;;;0.40;;
40635;SDS011;26642;55.766;37.828;2023-02-15T02:40:44;1.40;;;0.40;;
40635;SDS011;26642;55.766;37.828;2023-02-15T02:43:38;1.98;;;0.40;;
40635;SDS011;26642;55.766;37.828;2023-02-15T02:49:03;1.27;;;0.30;;
40635;SDS011;26642;55.766;37.828;2023-02-15T02:51:29;0.85;;;0.30;;
40635;SDS011;26642;55.766;37.828;2023-02-15T02:53:58;1.05;;;0.52;;
40635;SDS011;26642;55.766;37.828;2023-02-15T02:59:02;3.33;;;0.70;;
40635;SDS011;26642;55.766;37.828;2023-02-15T03:01:48;0.63;;;0.47;;
40635;SDS011;26642;55.766;37.828;2023-02-15T03:04:17;1.08;;;0.40;;
40635;SDS011;26642;55.766;37.828;2023-02-15T03:06:48;1.45;;;0.60;;
40635;SDS011;26642;55.766;37.828;2023-02-15T03:12:00;1.97;;;0.70;;
40635;SDS011;26642;55.766;37.828;2023-02-15T03:14:35;1.03;;;0.50;;
40635;SDS011;26642;55.766;37.828;2023-02-15T03:17:03;1.33;;;0.68;;
40635;SDS011;26642;55.766;37.828;2023-02-15T03:19:33;1.90;;;0.50;;
40635;SDS011;26642;55.766;37.828;2023-02-15T03:22:21;2.15;;;0.65;;
40635;SDS011;26642;55.766;37.828;2023-02-15T03:27:59;2.15;;;0.60;;
40635;SDS011;26642;55.766;37.828;2023-02-15T03:30:28;5.72;;;0.70;;
40635;SDS011;26642;55.766;37.828;2023-02-15T03:32:57;2.00;;;0.60;;
40635;SDS011;26642;55.766;37.828;2023-02-15T03:35:25;2.35;;;0.70;;
40635;SDS011;26642;55.766;37.828;2023-02-15T03:38:00;4.20;;;0.85;;
40635;SDS011;26642;55.766;37.828;2023-02-15T03:40:30;1.27;;;0.60;;
40635;SDS011;26642;55.766;37.828;2023-02-15T03:46:05;2.25;;;0.75;;
40635;SDS011;26642;55.766;37.828;2023-02-15T03:48:38;1.45;;;0.70;;
40635;SDS011;26642;55.766;37.828;2023-02-15T03:51:08;3.25;;;0.90;;
40635;SDS011;26642;55.766;37.828;2023-02-15T03:53:56;2.55;;;1.02;;
40635;SDS011;26642;55.766;37.828;2023-02-15T03:56:24;1.85;;;0.70;;
40635;SDS011;26642;55.766;37.828;2023-02-15T03:58:50;2.30;;;0.60;;
40635;SDS011;26642;55.766;37.828;2023-02-15T04:01:39;3.97;;;1.02;;
40635;SDS011;26642;55.766;37.828;2023-02-15T04:04:38;2.17;;;0.70;;
40635;SDS011;26642;55.766;37.828;2023-02-15T04:07:08;3.70;;;0.93;;
40635;SDS011;26642;55.766;37.828;2023-02-15T04:09:34;2.63;;;0.80;;
40635;SDS011;26642;55.766;37.828;2023-02-15T04:12:19;2.38;;;0.77;;
40635;SDS011;26642;55.766;37.828;2023-02-15T04:14:45;1.90;;;0.65;;
40635;SDS011;26642;55.766;37.828;2023-02-15T04:17:30;3.00;;;1.20;;
40635;SDS011;26642;55.766;37.828;2023-02-15T04:19:56;3.47;;;0.88;;
40635;SDS011;26642;55.766;37.828;2023-02-15T04:22:40;1.75;;;0.80;;
40635;SDS011;26642;55.766;37.828;2023-02-15T04:25:25;1.90;;;0.60;;
40635;SDS011;26642;55.766;37.828;2023-02-15T04:27:51;4.13;;;0.82;;
40635;SDS011;26642;55.766;37.828;2023-02-15T04:30:19;0.88;;;0.65;;
40635;SDS011;26642;55.766;37.828;2023-02-15T04:32:47;0.68;;;0.47;;
40635;SDS011;26642;55.766;37.828;2023-02-15T04:35:13;1.83;;;0.70;;
40635;SDS011;26642;55.766;37.828;2023-02-15T04:37:40;1.63;;;0.50;;
40635;SDS011;26642;55.766;37.828;2023-02-15T04:40:08;2.15;;;0.50;;
40635;SDS011;26642;55.766;37.828;2023-02-15T04:42:37;2.90;;;0.77;;
40635;SDS011;26642;55.766;37.828;2023-02-15T04:45:03;3.13;;;0.60;;
40635;SDS011;26642;55.766;37.828;2023-02-15T04:47:30;1.98;;;0.73;;
40635;SDS011;26642;55.766;37.828;2023-02-15T04:49:55;2.05;;;0.68;;
40635;SDS011;26642;55.766;37.828;2023-02-15T04:52:21;3.75;;;1.10;;
40635;SDS011;26642;55.766;37.828;2023-02-15T04:54:47;2.40;;;1.20;;
40635;SDS011;26642;55.766;37.828;2023-02-15T04:57:14;5.85;;;1.60;;
40635;SDS011;26642;55.766;37.828;2023-02-15T04:59:39;4.50;;;1.30;;
40635;SDS011;26642;55.766;37.828;2023-02-15T05:02:06;4.45;;;1.58;;
40635;SDS011;26642;55.766;37.828;2023-02-15T05:04:31;4.72;;;1.42;;
40635;SDS011;26642;55.766;37.828;2023-02-15T05:06:57;5.80;;;1.70;;
40635;SDS011;26642;55.766;37.828;2023-02-15T05:09:23;8.52;;;1.30;;
40635;SDS011;26642;55.766;37.828;2023-02-15T05:11:49;3.92;;;1.30;;
40635;SDS011;26642;55.766;37.828;2023-02-15T05:14:15;7.22;;;1.33;;
40635;SDS011;26642;55.766;37.828;2023-02-15T05:16:41;8.90;;;1.55;;
40635;SDS011;26642;55.766;37.828;2023-02-15T05:19:07;2.80;;;1.27;;
40635;SDS011;26642;55.766;37.828;2023-02-15T05:21:33;4.72;;;1.10;;
40635;SDS011;26642;55.766;37.828;2023-02-15T05:23:59;3.53;;;1.48;;
40635;SDS011;26642;55.766;37.828;2023-02-15T05:26:25;4.03;;;1.25;;
40635;SDS011;26642;55.766;37.828;2023-02-15T05:29:10;2.47;;;1.10;;
40635;SDS011;26642;55.766;37.828;2023-02-15T05:31:36;2.88;;;1.17;;
40635;SDS011;26642;55.766;37.828;2023-02-15T05:34:02;4.47;;;1.23;;
40635;SDS011;26642;55.766;37.828;2023-02-15T05:36:28;5.25;;;1.48;;
40635;SDS011;26642;55.766;37.828;2023-02-15T05:38:54;4.13;;;1.05;;
40635;SDS011;26642;55.766;37.828;2023-02-15T05:41:21;6.88;;;1.33;;
40635;SDS011;26642;55.766;37.828;2023-02-15T05:43:47;3.03;;;1.23;;
40635;SDS011;26642;55.766;37.828;2023-02-15T05:46:13;3.83;;;1.25;;
40635;SDS011;26642;55.766;37.828;2023-02-15T05:48:38;2.75;;;1.10;;
40635;SDS011;26642;55.766;37.828;2023-02-15T05:51:05;5.10;;;1.10;;
40635;SDS011;26642;55.766;37.828;2023-02-15T05:53:38;5.18;;;1.13;;
40635;SDS011;26642;55.766;37.828;2023-02-15T05:56:05;2.50;;;1.05;;
40635;SDS011;26642;55.766;37.828;2023-02-15T05:58:34;6.32;;;2.85;;
40635;SDS011;26642;55.766;37.828;2023-02-15T06:01:15;4.93;;;2.08;;
40635;SDS011;26642;55.766;37.828;2023-02-15T06:03:43;3.85;;;1.42;;
40635;SDS011;26642;55.766;37.828;2023-02-15T06:06:09;3.20;;;1.67;;
40635;SDS011;26642;55.766;37.828;2023-02-15T06:08:36;4.15;;;1.30;;
40635;SDS011;26642;55.766;37.828;2023-02-15T06:11:04;2.60;;;1.00;;
40635;SDS011;26642;55.766;37.828;2023-02-15T06:13:30;5.20;;;1.25;;
40635;SDS011;26642;55.766;37.828;2023-02-15T06:15:57;3.15;;;1.23;;
40635;SDS011;26642;55.766;37.828;2023-02-15T06:18:23;2.45;;;1.10;;
40635;SDS011;26642;55.766;37.828;2023-02-15T06:20:49;3.78;;;1.25;;
40635;SDS011;26642;55.766;37.828;2023-02-15T06:23:15;3.90;;;1.30;;
40635;SDS011;26642;55.766;37.828;2023-02-15T06:25:41;3.15;;;1.35;;
40635;SDS011;26642;55.766;37.828;2023-02-15T06:28:09;5.45;;;1.60;;
40635;SDS011;26642;55.766;37.828;2023-02-15T06:30:35;5.30;;;1.40;;
40635;SDS011;26642;55.766;37.828;2023-02-15T06:33:01;4.03;;;1.42;;
40635;SDS011;26642;55.766;37.828;2023-02-15T06:35:27;3.72;;;1.67;;
40635;SDS011;26642;55.766;37.828;2023-02-15T06:37:53;2.97;;;1.52;;
40635;SDS011;26642;55.766;37.828;2023-02-15T06:40:19;3.30;;;1.45;;
40635;SDS011;26642;55.766;37.828;2023-02-15T06:42:45;6.00;;;2.03;;
40635;SDS011;26642;55.766;37.828;2023-02-15T06:45:11;3.55;;;1.20;;
40635;SDS011;26642;55.766;37.828;2023-02-15T06:47:38;2.90;;;1.10;;
40635;SDS011;26642;55.766;37.828;2023-02-15T06:50:04;3.95;;;1.10;;
40635;SDS011;26642;55.766;37.828;2023-02-15T06:52:31;3.17;;;1.20;;
40635;SDS011;26642;55.766;37.828;2023-02-15T06:54:57;4.35;;;1.27;;
40635;SDS011;26642;55.766;37.828;2023-02-15T06:57:23;3.53;;;1.20;;
40635;SDS011;26642;55.766;37.828;2023-02-15T06:59:49;1.30;;;0.93;;
40635;SDS011;26642;55.766;37.828;2023-02-15T07:02:15;2.97;;;1.20;;
40635;SDS011;26642;55.766;37.828;2023-02-15T07:04:41;3.00;;;1.02;;
40635;SDS011;26642;55.766;37.828;2023-02-15T07:07:08;2.83;;;1.15;;
40635;SDS011;26642;55.766;37.828;2023-02-15T07:09:35;2.10;;;1.13;;
40635;SDS011;26642;55.766;37.828;2023-02-15T07:12:01;2.90;;;1.20;;
40635;SDS011;26642;55.766;37.828;2023-02-15T07:14:46;2.20;;;1.20;;
40635;SDS011;26642;55.766;37.828;2023-02-15T07:17:12;2.58;;;0.90;;
40635;SDS011;26642;55.766;37.828;2023-02-15T07:19:38;2.60;;;1.13;;
40635;SDS011;26642;55.766;37.828;2023-02-15T07:22:04;1.02;;;0.90;;
40635;SDS011;26642;55.766;37.828;2023-02-15T07:24:30;3.00;;;0.90;;
40635;SDS011;26642;55.766;37.828;2023-02-15T07:26:56;4.32;;;1.27;;
40635;SDS011;26642;55.766;37.828;2023-02-15T07:29:23;2.15;;;1.13;;
40635;SDS011;26642;55.766;37.828;2023-02-15T07:31:49;2.58;;;1.08;;
40635;SDS011;26642;55.766;37.828;2023-02-15T07:34:15;1.80;;;1.20;;
40635;SDS011;26642;55.766;37.828;2023-02-15T07:36:42;3.58;;;1.13;;
40635;SDS011;26642;55.766;37.828;2023-02-15T07:39:09;3.30;;;1.20;;
40635;SDS011;26642;55.766;37.828;2023-02-15T07:41:36;1.40;;;1.17;;
40635;SDS011;26642;55.766;37.828;2023-02-15T07:44:12;4.55;;;0.90;;
40635;SDS011;26642;55.766;37.828;2023-02-15T07:46:39;3.35;;;1.20;;
40635;SDS011;26642;55.766;37.828;2023-02-15T07:49:06;1.40;;;0.98;;
40635;SDS011;26642;55.766;37.828;2023-02-15T07:51:32;2.15;;;1.08;;
40635;SDS011;26642;55.766;37.828;2023-02-15T07:53:58;3.47;;;1.63;;
40635;SDS011;26642;55.766;37.828;2023-02-15T07:56:24;2.90;;;1.17;;
40635;SDS011;26642;55.766;37.828;2023-02-15T07:58:49;2.08;;;1.10;;
40635;SDS011;26642;55.766;37.828;2023-02-15T08:01:16;2.67;;;1.20;;
40635;SDS011;26642;55.766;37.828;2023-02-15T08:03:43;2.00;;;1.30;;
40635;SDS011;26642;55.766;37.828;2023-02-15T08:10:10;2.53;;;1.48;;
40635;SDS011;26642;55.766;37.828;2023-02-15T08:12:56;2.50;;;1.55;;
40635;SDS011;26642;55.766;37.828;2023-02-15T08:15:22;3.92;;;1.42;;
40635;SDS011;26642;55.766;37.828;2023-02-15T08:17:47;2.88;;;1.27;;
40635;SDS011;26642;55.766;37.828;2023-02-15T08:20:13;2.83;;;1.73;;
40635;SDS011;26642;55.766;37.828;2023-02-15T08:22:39;4.05;;;1.30;;
40635;SDS011;26642;55.766;37.828;2023-02-15T08:25:05;3.30;;;1.20;;
40635;SDS011;26642;55.766;37.828;2023-02-15T08:27:31;3.35;;;1.48;;
40635;SDS011;26642;55.766;37.828;2023-02-15T08:29:57;4.93;;;1.33;;
40635;SDS011;26642;55.766;37.828;2023-02-15T08:32:23;2.65;;;1.55;;
40635;SDS011;26642;55.766;37.828;2023-02-15T08:34:49;2.30;;;1.20;;
40635;SDS011;26642;55.766;37.828;2023-02-15T08:37:15;2.53;;;1.15;;
40635;SDS011;26642;55.766;37.828;2023-02-15T08:39:41;2.42;;;1.48;;
40635;SDS011;26642;55.766;37.828;2023-02-15T08:42:08;2.40;;;1.30;;
40635;SDS011;26642;55.766;37.828;2023-02-15T08:44:34;2.90;;;1.00;;
40635;SDS011;26642;55.766;37.828;2023-02-15T08:47:00;3.35;;;1.23;;
40635;SDS011;26642;55.766;37.828;2023-02-15T08:49:28;2.38;;;1.30;;
40635;SDS011;26642;55.766;37.828;2023-02-15T08:51:54;1.98;;;1.13;;
40635;SDS011;26642;55.766;37.828;2023-02-15T08:54:20;1.98;;;1.13;;
40635;SDS011;26642;55.766;37.828;2023-02-15T08:56:47;3.03;;;1.60;;
40635;SDS011;26642;55.766;37.828;2023-02-15T08:59:15;2.40;;;1.20;;
40635;SDS011;26642;55.766;37.828;2023-02-15T09:01:46;3.00;;;1.33;;
40635;SDS011;26642;55.766;37.828;2023-02-15T09:04:13;2.05;;;1.10;;
40635;SDS011;26642;55.766;37.828;2023-02-15T09:06:41;2.10;;;1.27;;
40635;SDS011;26642;55.766;37.828;2023-02-15T09:09:09;2.53;;;1.15;;
40635;SDS011;26642;55.766;37.828;2023-02-15T09:11:37;2.53;;;1.35;;
40635;SDS011;26642;55.766;37.828;2023-02-15T09:14:06;2.08;;;1.05;;
40635;SDS011;26642;55.766;37.828;2023-02-15T09:16:35;3.60;;;1.60;;
40635;SDS011;26642;55.766;37.828;2023-02-15T09:19:03;2.47;;;1.05;;
40635;SDS011;26642;55.766;37.828;2023-02-15T09:21:30;2.05;;;1.23;;
40635;SDS011;26642;55.766;37.828;2023-02-15T09:23:57;4.20;;;1.90;;
40635;SDS011;26642;55.766;37.828;2023-02-15T09:26:25;1.25;;;0.95;;
40635;SDS011;26642;55.766;37.828;2023-02-15T09:28:54;1.58;;;0.90;;
40635;SDS011;26642;55.766;37.828;2023-02-15T09:31:22;2.13;;;1.33;;
40635;SDS011;26642;55.766;37.828;2023-02-15T09:33:50;2.65;;;1.30;;
40635;SDS011;26642;55.766;37.828;2023-02-15T09:38:48;3.35;;;0.90;;
40635;SDS011;26642;55.766;37.828;2023-02-15T09:41:36;2.13;;;1.27;;
40635;SDS011;26642;55.766;37.828;2023-02-15T09:45:17;2.30;;;1.17;;
40635;SDS011;26642;55.766;37.828;2023-02-15T09:58:56;1.90;;;0.90;;
40635;SDS011;26642;55.766;37.828;2023-02-15T10:01:49;1.92;;;0.95;;
40635;SDS011;26642;55.766;37.828;2023-02-15T10:17:52;1.35;;;0.80;;
40635;SDS011;26642;55.766;37.828;2023-02-15T10:23:24;1.70;;;1.23;;
40635;SDS011;26642;55.766;37.828;2023-02-15T10:28:48;1.80;;;0.70;;
40635;SDS011;26642;55.766;37.828;2023-02-15T10:31:28;1.10;;;0.85;;
40635;SDS011;26642;55.766;37.828;2023-02-15T10:45:21;3.60;;;1.45;;
40635;SDS011;26642;55.766;37.828;2023-02-15T10:51:18;1.45;;;0.90;;
40635;SDS011;26642;55.766;37.828;2023-02-15T11:05:17;1.15;;;0.88;;
40635;SDS011;26642;55.766;37.828;2023-02-15T11:08:03;0.88;;;0.68;;
40635;SDS011;26642;55.766;37.828;2023-02-15T11:10:35;1.38;;;0.90;;
40635;SDS011;26642;55.766;37.828;2023-02-15T11:13:09;1.42;;;0.73;;
40635;SDS011;26642;55.766;37.828;2023-02-15T11:15:41;0.73;;;0.60;;
40635;SDS011;26642;55.766;37.828;2023-02-15T11:18:25;1.08;;;0.77;;
40635;SDS011;26642;55.766;37.828;2023-02-15T11:21:01;1.10;;;0.77;;
40635;SDS011;26642;55.766;37.828;2023-02-15T11:23:46;1.25;;;0.80;;
40635;SDS011;26642;55.766;37.828;2023-02-15T11:26:21;1.20;;;0.60;;
40635;SDS011;26642;55.766;37.828;2023-02-15T11:28:53;0.55;;;0.52;;
40635;SDS011;26642;55.766;37.828;2023-02-15T11:31:25;1.05;;;0.60;;
40635;SDS011;26642;55.766;37.828;2023-02-15T11:34:02;0.65;;;0.55;;
40635;SDS011;26642;55.766;37.828;2023-02-15T11:36:37;1.58;;;0.70;;
40635;SDS011;26642;55.766;37.828;2023-02-15T11:39:10;1.08;;;0.65;;
40635;SDS011;26642;55.766;37.828;2023-02-15T11:41:40;1.90;;;0.95;;
40635;SDS011;26642;55.766;37.828;2023-02-15T11:46:43;1.63;;;0.57;;
40635;SDS011;26642;55.766;37.828;2023-02-15T11:49:15;1.58;;;0.70;;
40635;SDS011;26642;55.766;37.828;2023-02-15T11:51:52;2.38;;;0.57;;
40635;SDS011;26642;55.766;37.828;2023-02-15T11:54:21;4.60;;;1.25;;
40635;SDS011;26642;55.766;37.828;2023-02-15T11:56:54;0.80;;;0.50;;
40635;SDS011;26642;55.766;37.828;2023-02-15T11:59:29;0.60;;;0.50;;
40635;SDS011;26642;55.766;37.828;2023-02-15T12:09:40;1.90;;;0.60;;
40635;SDS011;26642;55.766;37.828;2023-02-15T12:12:35;0.77;;;0.40;;
40635;SDS011;26642;55.766;37.828;2023-02-15T12:15:03;1.08;;;0.50;;
40635;SDS011;26642;55.766;37.828;2023-02-15T12:17:41;0.80;;;0.60;;
40635;SDS011;26642;55.766;37.828;2023-02-15T12:25:48;0.90;;;0.50;;
40635;SDS011;26642;55.766;37.828;2023-02-15T12:30:55;1.40;;;0.40;;
40635;SDS011;26642;55.766;37.828;2023-02-15T12:33:26;0.80;;;0.43;;
40635;SDS011;26642;55.766;37.828;2023-02-15T12:36:00;0.70;;;0.47;;
40635;SDS011;26642;55.766;37.828;2023-02-15T12:38:36;1.05;;;0.30;;
40635;SDS011;26642;55.766;37.828;2023-02-15T12:41:21;0.93;;;0.60;;
40635;SDS011;26642;55.766;37.828;2023-02-15T12:46:57;1.50;;;0.40;;
40635;SDS011;26642;55.766;37.828;2023-02-15T12:49:26;1.27;;;0.65;;
40635;SDS011;26642;55.766;37.828;2023-02-15T12:51:57;0.45;;;0.40;;
40635;SDS011;26642;55.766;37.828;2023-02-15T12:54:29;0.70;;;0.40;;
40635;SDS011;26642;55.766;37.828;2023-02-15T13:02:24;0.80;;;0.35;;
40635;SDS011;26642;55.766;37.828;2023-02-15T13:04:53;0.63;;;0.47;;
40635;SDS011;26642;55.766;37.828;2023-02-15T13:07:22;0.40;;;0.38;;
40635;SDS011;26642;55.766;37.828;2023-02-15T13:09:51;0.60;;;0.40;;
40635;SDS011;26642;55.766;37.828;2023-02-15T13:12:18;0.60;;;0.40;;
40635;SDS011;26642;55.766;37.828;2023-02-15T13:14:46;0.70;;;0.40;;
40635;SDS011;26642;55.766;37.828;2023-02-15T13:17:16;0.82;;;0.30;;
40635;SDS011;26642;55.766;37.828;2023-02-15T13:19:47;0.40;;;0.40;;
40635;SDS011;26642;55.766;37.828;2023-02-15T13:22:17;2.17;;;0.40;;
40635;SDS011;26642;55.766;37.828;2023-02-15T13:24:48;0.73;;;0.47;;
40635;SDS011;26642;55.766;37.828;2023-02-15T13:27:19;0.55;;;0.40;;
40635;SDS011;26642;55.766;37.828;2023-02-15T13:29:49;1.13;;;0.30;;
40635;SDS011;26642;55.766;37.828;2023-02-15T13:32:26;0.75;;;0.40;;
40635;SDS011;26642;55.766;37.828;2023-02-15T13:35:06;0.35;;;0.35;;
40635;SDS011;26642;55.766;37.828;2023-02-15T13:40:22;0.40;;;0.30;;
40635;SDS011;26642;55.766;37.828;2023-02-15T13:59:16;1.17;;;0.50;;
40635;SDS011;26642;55.766;37.828;2023-02-15T14:01:55;1.05;;;0.35;;
40635;SDS011;26642;55.766;37.828;2023-02-15T14:17:55;2.95;;;0.50;;
40635;SDS011;26642;55.766;37.828;2023-02-15T14:23:55;0.40;;;0.40;;
40635;SDS011;26642;55.766;37.828;2023-02-15T14:31:50;0.40;;;0.30;;
40635;SDS011;26642;55.766;37.828;2023-02-15T14:37:00;0.95;;;0.40;;
40635;SDS011;26642;55.766;37.828;2023-02-15T14:45:05;1.02;;;0.50;;
40635;SDS011;26642;55.766;37.828;2023-02-15T14:47:40;1.00;;;0.38;;
40635;SDS011;26642;55.766;37.828;2023-02-15T14:55:40;0.60;;;0.45;;
40635;SDS011;26642;55.766;37.828;2023-02-15T14:58:15;0.60;;;0.60;;
40635;SDS011;26642;55.766;37.828;2023-02-15T15:00:42;0.90;;;0.50;;
40635;SDS011;26642;55.766;37.828;2023-02-15T15:03:16;0.73;;;0.40;;
40635;SDS011;26642;55.766;37.828;2023-02-15T15:05:49;0.40;;;0.40;;
40635;SDS011;26642;55.766;37.828;2023-02-15T15:08:53;0.32;;;0.30;;
40635;SDS011;26642;55.766;37.828;2023-02-15T15:13:55;0.60;;;0.55;;
40635;SDS011;26642;55.766;37.828;2023-02-15T15:16:47;0.55;;;0.40;;
40635;SDS011;26642;55.766;37.828;2023-02-15T15:19:56;0.60;;;0.47;;
40635;SDS011;26642;55.766;37.828;2023-02-15T15:22:11;0.85;;;0.52;;
40635;SDS011;26642;55.766;37.828;2023-02-15T15:24:47;0.85;;;0.55;;
40635;SDS011;26642;55.766;37.828;2023-02-15T15:42:06;1.92;;;0.60;;
40635;SDS011;26642;55.766;37.828;2023-02-15T15:45:17;1.63;;;0.55;;
40635;SDS011;26642;55.766;37.828;2023-02-15T15:51:33;0.40;;;0.32;;
40635;SDS011;26642;55.766;37.828;2023-02-15T15:54:02;1.10;;;0.60;;
40635;SDS011;26642;55.766;37.828;2023-02-15T15:56:31;1.80;;;0.40;;
40635;SDS011;26642;55.766;37.828;2023-02-15T15:59:05;2.08;;;0.47;;
40635;SDS011;26642;55.766;37.828;2023-02-15T16:01:37;1.83;;;0.45;;
40635;SDS011;26642;55.766;37.828;2023-02-15T16:04:32;2.92;;;0.63;;
40635;SDS011;26642;55.766;37.828;2023-02-15T16:09:59;1.83;;;0.40;;
40635;SDS011;26642;55.766;37.828;2023-02-15T16:12:30;1.15;;;0.50;;
40635;SDS011;26642;55.766;37.828;2023-02-15T16:15:00;1.40;;;0.60;;
40635;SDS011;26642;55.766;37.828;2023-02-15T16:17:32;1.75;;;0.60;;
40635;SDS011;26642;55.766;37.828;2023-02-15T16:20:03;17.75;;;0.90;;
40635;SDS011;26642;55.766;37.828;2023-02-15T16:22:48;1.33;;;0.40;;
40635;SDS011;26642;55.766;37.828;2023-02-15T16:28:22;1.10;;;0.57;;
40635;SDS011;26642;55.766;37.828;2023-02-15T16:30:55;1.50;;;0.40;;
40635;SDS011;26642;55.766;37.828;2023-02-15T17:01:49;6.80;;;1.02;;
40635;SDS011;26642;55.766;37.828;2023-02-15T17:07:05;3.00;;;1.08;;
40635;SDS011;26642;55.766;37.828;2023-02-15T17:09:48;5.40;;;1.40;;
40635;SDS011;26642;55.766;37.828;2023-02-15T17:15:37;4.03;;;1.08;;
40635;SDS011;26642;55.766;37.828;2023-02-15T17:18:12;6.95;;;1.80;;
40635;SDS011;26642;55.766;37.828;2023-02-15T17:20:43;3.60;;;1.40;;
40635;SDS011;26642;55.766;37.828;2023-02-15T17:23:25;4.28;;;1.40;;
40635;SDS011;26642;55.766;37.828;2023-02-15T17:26:12;2.35;;;1.08;;
40635;SDS011;26642;55.766;37.828;2023-02-15T17:29:09;3.72;;;1.25;;
40635;SDS011;26642;55.766;37.828;2023-02-15T17:31:48;4.57;;;1.58;;
40635;SDS011;26642;55.766;37.828;2023-02-15T17:37:10;4.65;;;1.65;;
40635;SDS011;26642;55.766;37.828;2023-02-15T17:39:38;4.13;;;1.58;;
40635;SDS011;26642;55.766;37.828;2023-02-15T17:42:05;2.88;;;1.38;;
40635;SDS011;26642;55.766;37.828;2023-02-15T17:44:31;3.85;;;1.42;;
40635;SDS011;26642;55.766;37.828;2023-02-15T17:46:57;3.58;;;1.30;;
40635;SDS011;26642;55.766;37.828;2023-02-15T17:49:24;2.10;;;1.05;;
40635;SDS011;26642;55.766;37.828;2023-02-15T17:52:00;3.85;;;1.50;;
40635;SDS011;26642;55.766;37.828;2023-02-15T17:54:27;2.70;;;1.38;;
40635;SDS011;26642;55.766;37.828;2023-02-15T17:57:12;3.85;;;1.20;;
40635;SDS011;26642;55.766;37.828;2023-02-15T17:59:39;3.10;;;1.63;;
40635;SDS011;26642;55.766;37.828;2023-02-15T18:02:24;4.53;;;1.20;;
40635;SDS011;26642;55.766;37.828;2023-02-15T18:05:15;4.05;;;1.10;;
40635;SDS011;26642;55.766;37.828;2023-02-15T18:08:00;2.45;;;1.00;;
40635;SDS011;26642;55.766;37.828;2023-02-15T18:10:44;1.45;;;0.90;;
40635;SDS011;26642;55.766;37.828;2023-02-15T18:13:28;1.30;;;0.95;;
40635;SDS011;26642;55.766;37.828;2023-02-15T18:15:54;2.30;;;0.80;;
40635;SDS011;26642;55.766;37.828;2023-02-15T18:18:21;1.45;;;0.80;;
40635;SDS011;26642;55.766;37.828;2023-02-15T18:20:48;0.90;;;0.63;;
40635;SDS011;26642;55.766;37.828;2023-02-15T18:23:15;2.35;;;0.88;;
40635;SDS011;26642;55.766;37.828;2023-02-15T18:25:41;0.68;;;0.50;;
40635;SDS011;26642;55.766;37.828;2023-02-15T18:28:07;1.80;;;0.82;;
40635;SDS011;26642;55.766;37.828;2023-02-15T18:30:38;1.50;;;0.73;;
40635;SDS011;26642;55.766;37.828;2023-02-15T18:33:18;0.90;;;0.70;;
40635;SDS011;26642;55.766;37.828;2023-02-15T18:35:56;0.77;;;0.70;;
40635;SDS011;26642;55.766;37.828;2023-02-15T18:38:22;1.15;;;0.77;;
40635;SDS011;26642;55.766;37.828;2023-02-15T18:40:48;3.33;;;1.00;;
40635;SDS011;26642;55.766;37.828;2023-02-15T18:43:15;1.40;;;0.80;;
40635;SDS011;26642;55.766;37.828;2023-02-15T18:45:41;0.75;;;0.70;;
40635;SDS011;26642;55.766;37.828;2023-02-15T18:48:07;1.60;;;0.80;;
40635;SDS011;26642;55.766;37.828;2023-02-15T18:50:34;3.17;;;0.98;;
40635;SDS011;26642;55.766;37.828;2023-02-15T18:53:02;1.40;;;1.20;;
40635;SDS011;26642;55.766;37.828;2023-02-15T18:55:30;1.45;;;1.20;;
40635;SDS011;26642;55.766;37.828;2023-02-15T18:57:58;1.60;;;0.93;;
40635;SDS011;26642;55.766;37.828;2023-02-15T19:00:26;1.55;;;0.93;;
40635;SDS011;26642;55.766;37.828;2023-02-15T19:02:54;1.20;;;0.85;;